createdAt,value
2018-02-14T00:00:23.857Z,38.90
2018-02-14T00:02:52.056Z,38.60
2018-02-14T00:05:19.856Z,38.00
2018-02-14T00:07:47.724Z,38.20
2018-02-14T00:10:15.561Z,38.50
2018-02-14T00:12:45.508Z,38.60
2018-02-14T00:15:13.501Z,38.40
2018-02-14T00:17:42.411Z,38.20
2018-02-14T00:20:13.051Z,38.20
2018-02-14T00:22:41.764Z,39.20
2018-02-14T00:25:09.757Z,38.50
2018-02-14T00:27:37.569Z,38.40
2018-02-14T00:30:06.416Z,38.60
2018-02-14T00:32:36.495Z,38.90
2018-02-14T00:35:04.298Z,38.90
2018-02-14T00:37:32.394Z,38.50
2018-02-14T00:40:00.189Z,38.80
2018-02-14T00:42:28.061Z,38.20
2018-02-14T00:44:57.416Z,38.50
2018-02-14T00:47:27.994Z,38.40
2018-02-14T00:49:55.784Z,38.40
2018-02-14T00:52:23.596Z,38.00
2018-02-14T00:54:51.526Z,38.00
2018-02-14T00:57:19.316Z,37.80
2018-02-14T00:59:50.754Z,37.20
2018-02-14T01:02:20.192Z,37.20
2018-02-14T01:04:48.016Z,36.80
2018-02-14T01:07:16.580Z,36.70
2018-02-14T01:09:44.454Z,36.50
2018-02-14T01:12:12.475Z,36.40
2018-02-14T01:14:42.561Z,36.50
2018-02-14T01:17:12.169Z,36.60
2018-02-14T01:19:41.326Z,36.70
2018-02-14T01:22:10.326Z,36.70
2018-02-14T01:24:38.124Z,36.80
2018-02-14T01:27:08.242Z,37.20
2018-02-14T01:29:38.331Z,37.60
2018-02-14T01:32:08.584Z,37.50
2018-02-14T01:34:38.876Z,38.10
2018-02-14T01:37:06.656Z,38.00
2018-02-14T01:39:34.553Z,38.00
2018-02-14T01:42:03.811Z,38.20
2018-02-14T01:44:33.602Z,38.30
2018-02-14T01:47:02.119Z,38.10
2018-02-14T01:49:32.440Z,38.10
2018-02-14T01:52:00.734Z,38.10
2018-02-14T01:54:29.361Z,37.90
2018-02-14T01:56:57.160Z,37.90
2018-02-14T01:59:25.805Z,37.50
2018-02-14T02:01:54.594Z,36.90
2018-02-14T02:04:22.465Z,37.30
2018-02-14T02:06:51.423Z,37.20
2018-02-14T02:09:19.330Z,37.40
2018-02-14T02:11:47.916Z,37.30
2018-02-14T02:14:21.168Z,37.20
2018-02-14T02:16:50.193Z,37.30
2018-02-14T02:19:18.021Z,37.30
2018-02-14T02:21:46.663Z,37.50
2018-02-14T02:24:14.508Z,37.40
2018-02-14T02:26:44.932Z,37.60
2018-02-14T02:29:12.732Z,37.70
2018-02-14T02:31:42.189Z,38.90
2018-02-14T02:34:11.009Z,38.80
2018-02-14T02:36:38.879Z,39.00
2018-02-14T02:39:18.689Z,39.00
2018-02-14T02:41:48.008Z,39.30
2018-02-14T02:44:17.015Z,39.60
2018-02-14T02:46:44.816Z,39.70
2018-02-14T02:49:13.535Z,39.80
2018-02-14T02:51:41.585Z,39.80
2018-02-14T02:54:09.384Z,40.10
2018-02-14T02:56:39.599Z,40.20
2018-02-14T02:59:07.495Z,39.40
2018-02-14T03:01:37.333Z,37.70
2018-02-14T03:04:06.225Z,37.60
2018-02-14T03:06:34.784Z,38.30
2018-02-14T03:09:05.842Z,38.30
2018-02-14T03:11:35.476Z,38.60
2018-02-14T03:14:04.391Z,39.30
2018-02-14T03:16:32.523Z,39.00
2018-02-14T03:19:01.063Z,39.20
2018-02-14T03:21:28.934Z,39.40
2018-02-14T03:23:56.951Z,39.90
2018-02-14T03:26:25.112Z,40.20
2018-02-14T03:28:53.851Z,40.50
2018-02-14T03:31:23.136Z,40.50
2018-02-14T03:33:51.888Z,40.40
2018-02-14T03:36:20.661Z,40.30
2018-02-14T03:38:49.212Z,40.30
2018-02-14T03:41:17.822Z,40.30
2018-02-14T03:43:47.524Z,40.50
2018-02-14T03:46:15.376Z,40.70
2018-02-14T03:48:43.220Z,40.70
2018-02-14T03:51:12.982Z,40.80
2018-02-14T03:53:48.345Z,40.60
2018-02-14T03:56:17.012Z,40.60
2018-02-14T03:58:46.240Z,41.00
2018-02-14T04:01:14.968Z,41.00
2018-02-14T04:03:42.833Z,41.20
2018-02-14T04:06:11.520Z,41.70
2018-02-14T04:08:40.873Z,41.00
2018-02-14T04:11:10.449Z,40.90
2018-02-14T04:13:39.428Z,40.90
2018-02-14T04:16:07.355Z,40.90
2018-02-14T04:18:37.808Z,40.90
2018-02-14T04:21:06.137Z,40.90
2018-02-14T04:23:36.636Z,40.90
2018-02-14T04:26:07.572Z,40.80
2018-02-14T04:28:38.572Z,40.70
2018-02-14T04:31:07.080Z,40.70
2018-02-14T04:33:35.724Z,41.00
2018-02-14T04:36:03.549Z,41.70
2018-02-14T04:38:33.292Z,42.80
2018-02-14T04:41:02.039Z,42.80
2018-02-14T04:43:30.828Z,43.00
2018-02-14T04:46:00.321Z,43.80
2018-02-14T04:48:28.528Z,43.10
2018-02-14T04:50:57.088Z,43.70
2018-02-14T04:53:25.897Z,44.10
2018-02-14T04:55:56.344Z,44.70
2018-02-14T04:58:24.966Z,44.70
2018-02-14T05:00:53.880Z,45.20
2018-02-14T05:03:22.660Z,45.30
2018-02-14T05:05:51.392Z,44.90
2018-02-14T05:08:19.967Z,44.60
2018-02-14T05:10:47.859Z,44.60
2018-02-14T05:13:15.808Z,44.60
2018-02-14T05:15:44.285Z,44.70
2018-02-14T05:18:12.715Z,44.60
2018-02-14T05:20:41.439Z,43.90
2018-02-14T05:23:09.606Z,43.60
2018-02-14T05:25:38.168Z,41.00
2018-02-14T05:28:06.016Z,40.90
2018-02-14T05:30:35.184Z,40.60
2018-02-14T05:33:04.487Z,40.30
2018-02-14T05:35:33.456Z,40.20
2018-02-14T05:38:01.613Z,40.20
2018-02-14T05:40:31.110Z,40.00
2018-02-14T05:42:59.665Z,40.20
2018-02-14T05:45:28.424Z,39.60
2018-02-14T05:47:57.297Z,39.30
2018-02-14T05:50:25.154Z,39.00
2018-02-14T05:52:57.739Z,39.10
2018-02-14T05:55:25.894Z,39.10
2018-02-14T05:57:55.291Z,38.90
2018-02-14T06:00:23.126Z,39.00
2018-02-14T06:02:52.559Z,39.00
2018-02-14T06:05:22.100Z,38.90
2018-02-14T06:07:49.881Z,38.90
2018-02-14T06:10:19.348Z,38.80
2018-02-14T06:12:48.191Z,38.50
2018-02-14T06:15:17.334Z,38.60
2018-02-14T06:17:45.328Z,38.60
2018-02-14T06:20:13.440Z,38.20
2018-02-14T06:22:42.214Z,38.30
2018-02-14T06:25:10.971Z,38.50
2018-02-14T06:27:38.819Z,38.70
2018-02-14T06:30:07.920Z,38.80
2018-02-14T06:32:35.772Z,38.80
2018-02-14T06:35:03.648Z,39.00
2018-02-14T06:37:32.336Z,39.20
2018-02-14T06:40:01.222Z,39.30
2018-02-14T06:42:30.578Z,39.50
2018-02-14T06:44:59.883Z,39.30
2018-02-14T06:47:28.985Z,38.80
2018-02-14T06:49:59.641Z,37.70
2018-02-14T06:52:28.291Z,37.10
2018-02-14T06:54:57.927Z,37.60
2018-02-14T06:57:27.253Z,38.40
2018-02-14T06:59:55.792Z,38.40
2018-02-14T07:02:26.329Z,38.70
2018-02-14T07:04:55.763Z,38.80
2018-02-14T07:07:25.836Z,39.10
2018-02-14T07:09:56.248Z,39.10
2018-02-14T07:12:24.761Z,38.60
2018-02-14T07:14:55.152Z,38.90
2018-02-14T07:17:22.970Z,39.30
2018-02-14T07:19:52.284Z,39.70
2018-02-14T07:22:20.084Z,39.80
2018-02-14T07:24:49.773Z,39.90
2018-02-14T07:27:20.253Z,39.80
2018-02-14T07:29:48.840Z,39.80
2018-02-14T07:32:17.430Z,39.90
2018-02-14T07:34:46.314Z,39.90
2018-02-14T07:37:14.406Z,39.90
2018-02-14T07:39:42.308Z,40.00
2018-02-14T07:42:10.372Z,40.20
2018-02-14T07:44:39.393Z,40.30
2018-02-14T07:47:09.774Z,40.50
2018-02-14T07:49:41.637Z,40.80
2018-02-14T07:52:09.876Z,41.20
2018-02-14T07:57:13.256Z,41.60
2018-02-14T07:59:41.778Z,41.80
2018-02-14T08:02:10.884Z,41.70
2018-02-14T08:04:38.693Z,42.00
2018-02-14T08:07:09.345Z,42.20
2018-02-14T08:09:38.419Z,42.50
2018-02-14T08:12:06.250Z,42.70
2018-02-14T08:14:35.109Z,42.90
2018-02-14T08:17:05.673Z,43.00
2018-02-14T08:19:34.492Z,43.00
2018-02-14T08:22:03.880Z,43.20
2018-02-14T08:24:33.221Z,43.10
2018-02-14T08:27:01.879Z,43.10
2018-02-14T08:29:32.134Z,43.10
2018-02-14T08:32:01.856Z,42.60
2018-02-14T08:34:29.684Z,42.60
2018-02-14T08:36:58.449Z,42.50
2018-02-14T08:39:27.356Z,42.40
2018-02-14T08:41:55.431Z,42.30
2018-02-14T08:44:23.578Z,42.50
2018-02-14T08:46:51.934Z,42.70
2018-02-14T08:49:19.984Z,42.50
2018-02-14T08:51:47.785Z,42.60
2018-02-14T08:54:16.285Z,42.60
2018-02-14T08:56:44.420Z,42.60
2018-02-14T08:59:13.766Z,42.70
2018-02-14T09:01:42.585Z,42.80
2018-02-14T09:04:10.492Z,42.90
2018-02-14T09:06:38.613Z,42.60
2018-02-14T09:09:06.567Z,42.30
2018-02-14T09:11:35.024Z,42.10
2018-02-14T09:14:03.828Z,42.00
2018-02-14T09:16:31.632Z,42.00
2018-02-14T09:19:00.367Z,41.70
2018-02-14T09:21:29.925Z,41.70
2018-02-14T09:23:57.762Z,41.70
2018-02-14T09:26:26.549Z,41.70
2018-02-14T09:28:54.377Z,41.60
2018-02-14T09:31:23.417Z,41.60
2018-02-14T09:33:51.289Z,41.40
2018-02-14T09:36:20.535Z,41.50
2018-02-14T09:38:48.325Z,41.60
2018-02-14T09:41:16.126Z,41.90
2018-02-14T09:43:45.253Z,42.90
2018-02-14T09:46:13.841Z,42.80
2018-02-14T09:48:41.770Z,43.50
2018-02-14T09:51:09.643Z,43.30
2018-02-14T09:53:38.201Z,43.50
2018-02-14T09:56:06.143Z,43.50
2018-02-14T09:58:33.956Z,43.60
2018-02-14T10:01:01.896Z,42.90
2018-02-14T10:03:29.696Z,42.40
2018-02-14T10:05:58.277Z,40.80
2018-02-14T10:08:27.620Z,40.60
2018-02-14T10:10:56.085Z,40.50
2018-02-14T10:13:23.936Z,40.70
2018-02-14T10:15:52.564Z,40.70
2018-02-14T10:18:20.392Z,40.80
2018-02-14T10:20:48.184Z,40.90
2018-02-14T10:23:16.021Z,41.10
2018-02-14T10:25:44.287Z,41.30
2018-02-14T10:28:14.865Z,41.70
2018-02-14T10:30:43.588Z,41.70
2018-02-14T10:33:12.186Z,41.80
2018-02-14T10:35:40.770Z,42.40
2018-02-14T10:38:08.605Z,42.40
2018-02-14T10:40:37.181Z,41.20
2018-02-14T10:43:05.012Z,41.60
2018-02-14T10:45:32.804Z,40.90
2018-02-14T10:48:00.604Z,40.00
2018-02-14T10:50:29.189Z,39.50
2018-02-14T10:52:57.732Z,38.70
2018-02-14T10:55:25.556Z,38.70
2018-02-14T10:57:54.264Z,38.60
2018-02-14T11:00:28.737Z,38.90
2018-02-14T11:03:04.580Z,39.70
2018-02-14T11:05:34.151Z,40.20
2018-02-14T11:08:01.936Z,40.20
2018-02-14T11:10:29.764Z,40.50
2018-02-14T11:12:58.555Z,41.10
2018-02-14T11:15:26.339Z,41.50
2018-02-14T11:17:54.144Z,41.90
2018-02-14T11:20:22.900Z,42.10
2018-02-14T11:22:50.740Z,42.10
2018-02-14T11:25:18.522Z,42.40
2018-02-14T11:27:46.332Z,43.00
2018-02-14T11:30:16.429Z,42.70
2018-02-14T11:32:45.957Z,42.80
2018-02-14T11:35:14.544Z,43.00
2018-02-14T11:37:43.788Z,43.00
2018-02-14T11:40:11.600Z,43.00
2018-02-14T11:42:41.172Z,43.30
2018-02-14T11:45:08.976Z,43.30
2018-02-14T11:47:37.523Z,43.30
2018-02-14T11:50:05.382Z,43.30
2018-02-14T11:52:33.184Z,43.50
2018-02-14T11:55:01.737Z,43.70
2018-02-14T11:57:29.533Z,43.70
2018-02-14T11:59:58.080Z,43.30
2018-02-14T12:02:25.884Z,43.40
2018-02-14T12:04:53.666Z,44.80
2018-02-14T12:07:21.444Z,45.20
2018-02-14T12:09:49.319Z,44.90
2018-02-14T12:12:17.133Z,45.30
2018-02-14T12:14:45.047Z,45.90
2018-02-14T12:17:12.874Z,46.40
2018-02-14T12:19:40.708Z,46.30
2018-02-14T12:22:08.495Z,45.90
2018-02-14T12:24:37.189Z,46.40
2018-02-14T12:27:05.789Z,46.00
2018-02-14T12:29:33.644Z,46.10
2018-02-14T12:32:02.117Z,46.80
2018-02-14T12:34:31.595Z,47.10
2018-02-14T12:37:00.236Z,46.80
2018-02-14T12:39:28.027Z,46.50
2018-02-14T12:41:55.856Z,46.10
2018-02-14T12:44:23.651Z,47.80
2018-02-14T12:46:52.392Z,48.40
2018-02-14T12:49:20.255Z,48.70
2018-02-14T12:51:48.885Z,46.90
2018-02-14T12:54:16.728Z,46.90
2018-02-14T12:56:44.825Z,46.30
2018-02-14T12:59:14.637Z,45.20
2018-02-14T13:01:42.417Z,45.20
2018-02-14T13:04:10.267Z,46.20
2018-02-14T13:06:38.149Z,46.60
2018-02-14T13:09:05.960Z,47.70
2018-02-14T13:11:33.773Z,48.80
2018-02-14T13:14:02.379Z,49.40
2018-02-14T13:16:30.188Z,49.50
2018-02-14T13:18:58.177Z,50.10
2018-02-14T13:21:26.044Z,50.20
2018-02-14T13:23:53.872Z,50.40
2018-02-14T13:26:21.681Z,50.60
2018-02-14T13:28:49.528Z,50.60
2018-02-14T13:31:17.326Z,50.40
2018-02-14T13:33:45.160Z,50.20
2018-02-14T13:36:13.045Z,49.20
2018-02-14T13:38:40.846Z,48.40
2018-02-14T13:41:09.402Z,47.90
2018-02-14T13:43:37.210Z,48.00
2018-02-14T13:46:05.021Z,47.70
2018-02-14T13:48:33.720Z,47.50
2018-02-14T13:51:01.599Z,46.70
2018-02-14T13:53:30.160Z,45.80
2018-02-14T13:55:58.825Z,45.80
2018-02-14T13:58:26.607Z,45.20
2018-02-14T14:00:54.490Z,44.30
2018-02-14T14:03:22.270Z,44.00
2018-02-14T14:05:50.845Z,40.80
2018-02-14T14:08:19.398Z,40.00
2018-02-14T14:10:47.215Z,39.90
2018-02-14T14:13:15.017Z,38.40
2018-02-14T14:15:42.791Z,38.10
2018-02-14T14:18:10.579Z,35.60
2018-02-14T14:20:38.401Z,34.70
2018-02-14T14:23:06.216Z,33.40
2018-02-14T14:25:34.004Z,32.00
2018-02-14T14:28:02.623Z,32.90
2018-02-14T14:30:30.425Z,33.70
2018-02-14T14:32:58.290Z,39.10
2018-02-14T14:35:26.934Z,41.90
2018-02-14T14:37:54.723Z,41.90
2018-02-14T14:40:22.524Z,43.30
2018-02-14T14:42:51.638Z,45.70
2018-02-14T14:45:19.496Z,45.70
2018-02-14T14:47:47.275Z,45.00
2018-02-14T14:50:15.073Z,44.40
2018-02-14T14:52:42.861Z,43.10
2018-02-14T14:55:10.661Z,42.30
2018-02-14T14:57:38.464Z,41.00
2018-02-14T15:00:06.326Z,41.60
2018-02-14T15:02:34.137Z,40.60
2018-02-14T15:05:02.751Z,41.20
2018-02-14T15:07:30.558Z,41.90
2018-02-14T15:09:58.340Z,41.30
2018-02-14T15:12:26.352Z,41.90
2018-02-14T15:14:54.198Z,42.90
2018-02-14T15:17:22.749Z,43.60
2018-02-14T15:19:50.540Z,43.60
2018-02-14T15:22:19.088Z,44.10
2018-02-14T15:24:46.874Z,44.10
2018-02-14T15:27:15.426Z,44.40
2018-02-14T15:29:43.232Z,44.40
2018-02-14T15:32:11.809Z,44.30
2018-02-14T15:34:40.528Z,44.80
2018-02-14T15:37:08.376Z,44.80
2018-02-14T15:39:36.204Z,45.20
2018-02-14T15:42:03.996Z,45.50
2018-02-14T15:44:31.784Z,45.50
2018-02-14T15:47:00.108Z,46.00
2018-02-14T15:49:27.930Z,46.10
2018-02-14T15:51:55.821Z,47.10
2018-02-14T15:54:23.935Z,47.50
2018-02-14T15:56:52.747Z,48.50
2018-02-14T15:59:20.608Z,48.50
2018-02-14T16:01:48.429Z,49.50
2018-02-14T16:04:16.284Z,50.80
2018-02-14T16:06:45.077Z,51.40
2018-02-14T16:09:12.852Z,52.00
2018-02-14T16:11:41.716Z,52.80
2018-02-14T16:14:09.541Z,52.90
2018-02-14T16:16:37.347Z,52.80
2018-02-14T16:19:05.145Z,52.70
2018-02-14T16:21:34.336Z,52.60
2018-02-14T16:24:02.795Z,52.70
2018-02-14T16:26:31.589Z,52.90
2018-02-14T16:29:00.590Z,52.20
2018-02-14T16:31:28.440Z,51.80
2018-02-14T16:33:56.324Z,52.40
2018-02-14T16:36:24.132Z,52.60
2018-02-14T16:38:51.949Z,52.80
2018-02-14T16:41:19.821Z,53.20
2018-02-14T16:43:47.614Z,53.20
2018-02-14T16:46:16.812Z,52.80
2018-02-14T16:48:46.052Z,52.00
2018-02-14T16:51:14.545Z,52.10
2018-02-14T16:53:43.153Z,51.70
2018-02-14T16:56:11.759Z,52.00
2018-02-14T16:58:40.336Z,51.30
2018-02-14T17:01:09.149Z,50.70
2018-02-14T17:03:37.040Z,50.70
2018-02-14T17:06:04.890Z,50.90
2018-02-14T17:08:33.059Z,50.90
2018-02-14T17:11:00.860Z,51.10
2018-02-14T17:13:29.536Z,50.90
2018-02-14T17:15:57.316Z,50.90
2018-02-14T17:18:25.297Z,51.20
2018-02-14T17:20:53.396Z,51.40
2018-02-14T17:23:21.193Z,51.70
2018-02-14T17:25:49.911Z,52.00
2018-02-14T17:28:17.737Z,52.60
2018-02-14T17:30:45.814Z,52.70
2018-02-14T17:33:13.746Z,53.50
2018-02-14T17:35:43.236Z,54.50
2018-02-14T17:38:12.074Z,54.70
2018-02-14T17:40:40.789Z,54.70
2018-02-14T17:43:08.626Z,54.70
2018-02-14T17:45:37.386Z,55.80
2018-02-14T17:48:05.842Z,55.40
2018-02-14T17:50:37.489Z,55.40
2018-02-14T17:53:05.276Z,55.40
2018-02-14T17:55:34.000Z,55.30
2018-02-14T17:58:01.807Z,55.30
2018-02-14T18:00:30.521Z,55.20
2018-02-14T18:02:59.240Z,55.30
2018-02-14T18:05:27.196Z,55.40
2018-02-14T18:07:55.003Z,55.50
2018-02-14T18:10:22.867Z,55.50
2018-02-14T18:12:50.684Z,55.70
2018-02-14T18:15:18.600Z,55.70
2018-02-14T18:17:46.528Z,55.80
2018-02-14T18:20:14.582Z,56.10
2018-02-14T18:22:42.389Z,56.00
2018-02-14T18:25:10.261Z,56.00
2018-02-14T18:27:39.055Z,56.10
2018-02-14T18:30:06.918Z,56.00
2018-02-14T18:32:34.727Z,56.10
2018-02-14T18:35:03.563Z,56.20
2018-02-14T18:37:31.362Z,56.40
2018-02-14T18:39:59.940Z,56.30
2018-02-14T18:42:27.759Z,56.30
2018-02-14T18:44:55.554Z,56.40
2018-02-14T18:47:23.404Z,56.40
2018-02-14T18:49:51.211Z,56.50
2018-02-14T18:54:55.334Z,56.50
2018-02-14T18:57:24.797Z,56.80
2018-02-14T18:59:52.589Z,56.70
2018-02-14T19:02:20.465Z,56.80
2018-02-14T19:04:49.265Z,56.80
2018-02-14T19:07:18.659Z,56.70
2018-02-14T19:09:47.283Z,56.50
2018-02-14T19:12:15.955Z,56.50
2018-02-14T19:14:43.756Z,56.50
2018-02-14T19:17:11.589Z,56.20
2018-02-14T19:19:39.445Z,56.20
2018-02-14T19:22:08.231Z,56.10
2018-02-14T19:24:36.024Z,56.10
2018-02-14T19:27:04.643Z,56.70
2018-02-14T19:57:35.205Z,56.90
2018-02-14T20:00:03.120Z,56.90
2018-02-14T20:02:31.043Z,57.10
2018-02-14T20:05:00.269Z,57.20
2018-02-14T20:07:28.076Z,57.40
2018-02-14T20:09:56.620Z,57.50
2018-02-14T20:12:24.437Z,57.50
2018-02-14T20:14:53.306Z,57.60
2018-02-14T20:17:21.860Z,57.50
2018-02-14T20:19:49.668Z,57.40
2018-02-14T20:22:18.364Z,57.40
2018-02-14T20:24:46.209Z,57.40
2018-02-14T20:27:14.887Z,57.00
2018-02-14T20:29:44.268Z,56.90
2018-02-14T20:32:12.124Z,56.90
2018-02-14T20:34:39.912Z,56.60
2018-02-14T20:37:07.697Z,56.20
2018-02-14T20:39:37.189Z,55.90
2018-02-14T20:42:05.848Z,55.50
2018-02-14T20:44:33.743Z,55.50
2018-02-14T20:47:02.371Z,55.20
2018-02-14T20:49:30.245Z,55.20
2018-02-14T20:51:58.079Z,55.70
2018-02-14T20:54:25.940Z,56.10
2018-02-14T20:56:54.532Z,57.00
2018-02-14T20:59:22.441Z,57.00
2018-02-14T21:01:51.120Z,57.20
2018-02-14T21:04:18.941Z,57.30
2018-02-14T21:06:48.420Z,57.30
2018-02-14T21:09:16.981Z,56.20
2018-02-14T21:11:44.844Z,56.90
2018-02-14T21:14:12.645Z,56.20
2018-02-14T21:16:41.276Z,55.40
2018-02-14T21:19:09.082Z,55.40
2018-02-14T21:21:37.533Z,55.50
2018-02-14T21:24:05.721Z,56.30
2018-02-14T21:26:34.669Z,57.00
2018-02-14T21:29:04.607Z,57.00
2018-02-14T21:31:32.465Z,57.40
2018-02-14T21:34:00.308Z,57.80
2018-02-14T21:36:28.457Z,57.90
2018-02-14T21:38:57.859Z,58.20
2018-02-14T21:41:26.750Z,58.20
2018-02-14T21:43:56.270Z,58.40
2018-02-14T21:46:28.014Z,58.20
2018-02-14T21:48:58.347Z,58.30
2018-02-14T21:51:26.472Z,58.30
2018-02-14T21:53:55.124Z,58.30
2018-02-14T21:56:23.637Z,58.30
2018-02-14T21:58:51.980Z,58.20
2018-02-14T22:01:20.804Z,58.30
2018-02-14T22:03:48.906Z,58.30
2018-02-14T22:06:19.316Z,58.10
2018-02-14T22:18:45.803Z,57.40
2018-02-14T22:24:34.898Z,57.30
2018-02-14T23:35:12.045Z,50.20
2018-02-14T23:37:40.642Z,49.90
2018-02-14T23:40:09.696Z,49.90
2018-02-14T23:42:38.221Z,49.50
2018-02-14T23:45:07.928Z,49.20
2018-02-14T23:47:36.199Z,49.10
2018-02-14T23:50:05.010Z,48.50
2018-02-14T23:52:32.828Z,48.20
2018-02-14T23:55:00.743Z,47.90
2018-02-14T23:57:28.538Z,47.70
2018-02-14T23:59:56.544Z,47.60
